Time;durP1;ratioP1;P1;durP2;ratioP2;P2;SDS_P1;SDS_P2;PMS_P1;PMS_P2;Temp;Humidity;BMP_temperature;BMP_pressure;BME280_temperature;BME280_humidity;BME280_pressure;Samples;Min_cycle;Max_cycle;Signal;HPM_P1;HPM_P2
2022/08/29 00:01:24;;;;;;;10.50;5.63;;;;;;;11.77;94.61;102081.94;5112941;28;20054;-46
2022/08/29 00:03:54;;;;;;;13.25;6.47;;;;;;;11.70;94.87;102081.66;5113007;28;20027;-48
2022/08/29 00:06:19;;;;;;;12.32;7.50;;;;;;;11.78;94.90;102082.00;5113354;28;20378;-46
2022/08/29 00:08:45;;;;;;;13.65;6.63;;;;;;;11.71;94.51;102085.16;5112089;28;20478;-44
2022/08/29 00:11:10;;;;;;;12.80;6.63;;;;;;;11.68;94.27;102082.41;5113399;28;20110;-46
2022/08/29 00:13:35;;;;;;;12.23;7.13;;;;;;;11.71;94.57;102079.97;5114524;28;20081;-45
2022/08/29 00:16:01;;;;;;;16.52;8.63;;;;;;;11.67;94.72;102081.53;5116749;28;20023;-46
2022/08/29 00:18:26;;;;;;;13.07;7.65;;;;;;;11.66;94.71;102074.59;5117425;28;20110;-48
2022/08/29 00:20:52;;;;;;;14.02;9.23;;;;;;;11.61;95.12;102080.38;5117401;28;20104;-47
2022/08/29 00:23:17;;;;;;;15.45;9.25;;;;;;;11.62;95.58;102076.97;5116508;28;20466;-47
2022/08/29 00:25:42;;;;;;;18.52;11.95;;;;;;;11.56;95.96;102076.72;5117282;28;20031;-47
2022/08/29 00:28:08;;;;;;;19.83;11.90;;;;;;;11.56;96.28;102076.72;5117458;28;20174;-45
2022/08/29 00:30:34;;;;;;;20.08;12.57;;;;;;;11.50;96.47;102070.44;5116379;28;20068;-47
2022/08/29 00:32:59;;;;;;;21.50;12.65;;;;;;;11.50;96.83;102077.28;5117179;28;20467;-46
2022/08/29 00:35:28;;;;;;;26.58;14.52;;;;;;;11.44;97.20;102079.59;5117177;28;20058;-45
2022/08/29 00:37:54;;;;;;;23.30;15.23;;;;;;;11.35;97.26;102074.91;5115860;28;20471;-46
2022/08/29 00:40:31;;;;;;;30.65;17.30;;;;;;;11.42;97.71;102076.94;5117344;28;20027;-47
2022/08/29 00:42:57;;;;;;;35.60;20.25;;;;;;;11.43;97.49;102078.72;5116282;27;20392;-43
2022/08/29 00:45:23;;;;;;;33.60;21.17;;;;;;;11.39;97.49;102087.13;5117045;28;20034;-41
2022/08/29 00:47:56;;;;;;;42.80;22.02;;;;;;;11.33;97.78;102092.00;5116588;28;20020;-45
2022/08/29 00:50:30;;;;;;;36.38;21.70;;;;;;;11.33;97.72;102094.59;5116042;28;20023;-46
2022/08/29 00:52:57;;;;;;;37.47;21.30;;;;;;;11.25;97.25;102090.78;5116907;28;20027;-46
2022/08/29 00:55:26;;;;;;;40.47;22.30;;;;;;;11.26;97.10;102092.53;5116761;28;20459;-47
2022/08/29 00:57:56;;;;;;;34.00;20.33;;;;;;;11.12;96.93;102090.19;5115763;28;20439;-46
2022/08/29 01:00:24;;;;;;;32.25;20.25;;;;;;;10.95;96.97;102091.97;5116773;28;20026;-47
2022/08/29 01:02:50;;;;;;;32.05;21.33;;;;;;;10.95;96.78;102088.50;5116220;28;20386;-45
2022/08/29 01:05:16;;;;;;;29.65;19.05;;;;;;;10.92;97.83;102098.69;5115954;28;20026;-48
2022/08/29 01:07:42;;;;;;;31.02;18.40;;;;;;;10.99;98.75;102098.16;5116368;28;20023;-45
2022/08/29 01:10:09;;;;;;;31.35;19.50;;;;;;;10.96;98.79;102091.16;5116494;28;20371;-47
2022/08/29 01:12:35;;;;;;;26.85;15.68;;;;;;;10.87;98.48;102094.19;5115527;28;20066;-46
2022/08/29 01:15:08;;;;;;;27.38;16.55;;;;;;;10.80;98.20;102097.25;5116317;28;20370;-48
2022/08/29 01:17:39;;;;;;;23.63;15.60;;;;;;;10.76;97.71;102087.63;5116180;28;20081;-44
2022/08/29 01:20:17;;;;;;;24.48;15.75;;;;;;;10.76;98.53;102095.34;5115772;28;20043;-47
2022/08/29 01:23:01;;;;;;;26.20;15.55;;;;;;;10.89;98.53;102094.25;5116086;28;20016;-48
2022/08/29 01:25:32;;;;;;;24.00;14.63;;;;;;;10.86;98.71;102100.16;5113845;28;20031;-45
2022/08/29 01:28:04;;;;;;;22.00;13.80;;;;;;;10.77;99.11;102097.13;5116053;28;20028;-45
2022/08/29 01:30:29;;;;;;;22.17;13.88;;;;;;;10.71;98.83;102096.81;5116209;28;20027;-44
2022/08/29 01:32:56;;;;;;;21.40;13.35;;;;;;;10.67;98.37;102087.16;5115278;28;20028;-47
2022/08/29 01:35:22;;;;;;;23.80;14.63;;;;;;;10.66;98.68;102093.13;5116178;28;20028;-47
2022/08/29 01:37:47;;;;;;;19.60;13.25;;;;;;;10.64;98.88;102090.47;5115478;28;20382;-47
2022/08/29 01:40:13;;;;;;;20.10;12.63;;;;;;;10.64;98.90;102087.91;5115060;28;20106;-45
2022/08/29 01:42:38;;;;;;;22.45;13.02;;;;;;;10.59;98.35;102088.47;5115763;28;20019;-43
2022/08/29 01:45:05;;;;;;;19.25;12.48;;;;;;;10.60;98.40;102085.09;5115902;28;20367;-47
2022/08/29 01:47:33;;;;;;;19.02;12.32;;;;;;;10.53;98.23;102079.66;5114802;28;20101;-45
2022/08/29 01:50:00;;;;;;;21.23;12.77;;;;;;;10.44;98.10;102076.59;5115750;27;20024;-46
2022/08/29 01:52:25;;;;;;;19.35;11.63;;;;;;;10.28;98.32;102080.06;5115577;28;20020;-43
2022/08/29 01:54:51;;;;;;;15.73;11.43;;;;;;;10.31;98.51;102085.38;5114660;28;20475;-47
2022/08/29 01:57:17;;;;;;;18.02;10.98;;;;;;;10.38;99.35;102091.78;5115552;28;20032;-45
2022/08/29 01:59:43;;;;;;;20.17;12.57;;;;;;;10.21;98.60;102088.28;5115739;28;20028;-47
2022/08/29 02:02:15;;;;;;;20.65;13.48;;;;;;;10.12;99.41;102093.88;5114907;28;20023;-45
2022/08/29 02:04:41;;;;;;;20.65;12.20;;;;;;;10.00;99.05;102088.94;5115175;28;20031;-46
2022/08/29 02:07:07;;;;;;;22.25;13.43;;;;;;;10.02;100.00;102096.78;5114598;28;20023;-45
2022/08/29 02:09:32;;;;;;;17.73;12.30;;;;;;;10.04;100.00;102090.91;5115145;28;20023;-44
2022/08/29 02:12:01;;;;;;;16.48;11.07;;;;;;;10.04;100.00;102084.84;5115512;28;20034;-47
2022/08/29 02:14:27;;;;;;;18.08;12.18;;;;;;;9.99;100.00;102089.78;5114188;28;20496;-47
2022/08/29 02:16:52;;;;;;;15.40;10.85;;;;;;;10.05;100.00;102081.47;5115302;28;20108;-47
2022/08/29 02:19:18;;;;;;;16.10;10.43;;;;;;;10.06;100.00;102075.53;5115209;28;20027;-45
2022/08/29 02:21:44;;;;;;;15.57;9.75;;;;;;;10.00;100.00;102080.34;5114072;28;20031;-47
2022/08/29 02:24:09;;;;;;;14.13;9.63;;;;;;;10.07;100.00;102079.88;5114945;28;20024;-44
2022/08/29 02:26:35;;;;;;;16.52;9.27;;;;;;;10.07;100.00;102084.13;5115014;28;20024;-46
2022/08/29 02:29:00;;;;;;;13.80;9.63;;;;;;;10.09;100.00;102093.69;5114236;28;20027;-44
2022/08/29 02:31:26;;;;;;;16.13;9.43;;;;;;;10.08;100.00;102097.06;5114918;27;20386;-45
2022/08/29 02:33:52;;;;;;;21.23;10.23;;;;;;;10.08;100.00;102098.78;5114838;27;20039;-47
2022/08/29 02:36:19;;;;;;;15.88;10.18;;;;;;;10.12;100.00;102103.28;5113869;28;20027;-46
2022/08/29 02:38:44;;;;;;;17.95;9.82;;;;;;;10.08;100.00;102101.34;5114201;27;20442;-47
2022/08/29 02:41:10;;;;;;;14.63;10.05;;;;;;;10.20;100.00;102107.16;5114974;28;20015;-42
2022/08/29 02:43:35;;;;;;;16.13;10.02;;;;;;;10.13;100.00;102111.06;5113591;28;20027;-46
2022/08/29 02:46:01;;;;;;;14.20;10.00;;;;;;;10.18;100.00;102109.63;5114652;28;20106;-46
2022/08/29 02:48:26;;;;;;;16.80;10.88;;;;;;;10.21;100.00;102109.78;5114396;28;20379;-45
2022/08/29 02:50:54;;;;;;;15.90;10.07;;;;;;;10.07;100.00;102115.94;5113792;28;20471;-47
2022/08/29 02:53:23;;;;;;;17.05;10.23;;;;;;;10.10;100.00;102110.94;5114442;28;20026;-48
2022/08/29 02:55:50;;;;;;;15.10;10.18;;;;;;;10.02;100.00;102113.09;5114389;28;20016;-46
2022/08/29 02:58:16;;;;;;;13.20;9.55;;;;;;;9.96;100.00;102112.78;5113777;28;20035;-48
2022/08/29 03:00:42;;;;;;;14.07;10.63;;;;;;;9.89;100.00;102119.31;5114151;28;20023;-44
2022/08/29 03:03:07;;;;;;;14.27;9.88;;;;;;;9.92;100.00;102115.13;5114256;28;20040;-48
2022/08/29 03:05:34;;;;;;;13.80;9.43;;;;;;;9.89;100.00;102106.44;5113319;28;20047;-45
2022/08/29 03:08:01;;;;;;;16.38;10.40;;;;;;;9.67;100.00;102108.66;5114083;28;20094;-46
2022/08/29 03:10:27;;;;;;;13.93;9.90;;;;;;;9.62;100.00;102110.09;5113252;28;20464;-45
2022/08/29 03:12:52;;;;;;;16.17;9.52;;;;;;;9.52;100.00;102106.16;5114104;28;20031;-46
2022/08/29 03:15:19;;;;;;;13.18;9.52;;;;;;;9.50;100.00;102100.94;5114126;28;20066;-46
2022/08/29 03:17:45;;;;;;;16.38;9.40;;;;;;;9.47;100.00;102100.75;5112823;28;20046;-45
2022/08/29 03:20:12;;;;;;;14.48;9.57;;;;;;;9.37;100.00;102099.38;5113995;28;20016;-47
2022/08/29 03:22:38;;;;;;;;;;;;;;;9.58;99.32;102103.91;5114197;28;20466;-48
2022/08/29 03:25:05;;;;;;;13.20;8.63;;;;;;;9.46;100.00;102098.97;5113208;28;19923;-47
2022/08/29 03:27:31;;;;;;;12.52;9.10;;;;;;;9.51;100.00;102104.38;5113899;28;20035;-48
2022/08/29 03:29:56;;;;;;;13.38;9.00;;;;;;;9.49;100.00;102094.00;5113763;28;20076;-46
2022/08/29 03:32:21;;;;;;;14.10;8.82;;;;;;;9.43;100.00;102093.66;5113018;28;20424;-47
2022/08/29 03:34:47;;;;;;;13.75;8.57;;;;;;;9.32;100.00;102085.38;5113509;28;20032;-46
2022/08/29 03:37:12;;;;;;;13.82;8.80;;;;;;;9.30;100.00;102088.66;5113918;28;20042;-48
2022/08/29 03:39:38;;;;;;;15.30;9.27;;;;;;;9.37;100.00;102085.59;5112634;28;20483;-46
2022/08/29 03:42:05;;;;;;;12.43;8.88;;;;;;;9.21;100.00;102083.91;5113557;27;20031;-44
2022/08/29 03:44:36;;;;;;;14.38;9.43;;;;;;;9.21;100.00;102086.47;5113450;28;20039;-47
2022/08/29 03:47:02;;;;;;;16.27;9.32;;;;;;;9.28;100.00;102087.69;5112730;28;20030;-47
2022/08/29 03:49:27;;;;;;;13.00;8.82;;;;;;;9.29;100.00;102074.03;5112436;28;20489;-44
2022/08/29 03:51:52;;;;;;;12.95;8.45;;;;;;;9.27;100.00;102075.63;5113574;28;20020;-46
2022/08/29 03:54:18;;;;;;;14.75;9.18;;;;;;;9.15;100.00;102069.00;5112928;28;20031;-45
2022/08/29 03:56:44;;;;;;;12.95;9.00;;;;;;;9.12;100.00;102065.41;5113339;28;20182;-43
2022/08/29 03:59:10;;;;;;;13.07;8.77;;;;;;;9.14;100.00;102063.78;5113624;28;20024;-45
2022/08/29 04:01:35;;;;;;;15.05;9.18;;;;;;;9.04;100.00;102070.13;5112573;28;20386;-46
2022/08/29 04:04:01;;;;;;;13.48;9.23;;;;;;;9.11;100.00;102059.34;5113072;28;20122;-48
2022/08/29 04:06:29;;;;;;;12.77;9.63;;;;;;;9.16;100.00;102060.47;5113393;28;20023;-46
2022/08/29 04:08:55;;;;;;;14.32;9.55;;;;;;;9.20;100.00;102052.13;5112667;28;20035;-46
2022/08/29 04:11:23;;;;;;;12.35;9.30;;;;;;;9.21;100.00;102061.63;5113128;28;20027;-48
2022/08/29 04:13:49;;;;;;;12.70;9.20;;;;;;;9.18;100.00;102056.31;5112340;28;20028;-47
2022/08/29 04:16:19;;;;;;;12.40;9.40;;;;;;;9.19;100.00;102075.19;5113309;28;20040;-47
2022/08/29 04:18:44;;;;;;;14.23;9.55;;;;;;;9.19;100.00;102068.38;5113054;28;20027;-44
2022/08/29 04:21:10;;;;;;;12.27;9.05;;;;;;;9.10;100.00;102070.44;5112572;28;20471;-47
2022/08/29 04:23:37;;;;;;;17.27;10.52;;;;;;;9.16;100.00;102075.91;5112874;28;20471;-47
2022/08/29 04:26:03;;;;;;;15.27;10.40;;;;;;;9.21;100.00;102077.06;5113081;28;20027;-46
2022/08/29 04:28:28;;;;;;;15.00;9.23;;;;;;;9.17;100.00;102071.69;5112199;28;20027;-48
2022/08/29 04:30:54;;;;;;;12.98;9.50;;;;;;;9.21;100.00;102069.34;5113108;28;20031;-48
2022/08/29 04:33:22;;;;;;;13.93;9.30;;;;;;;9.18;100.00;102076.91;5112964;28;20023;-44
2022/08/29 04:35:48;;;;;;;15.02;9.98;;;;;;;9.22;100.00;102077.97;5112153;28;20051;-41
2022/08/29 04:38:13;;;;;;;14.20;9.30;;;;;;;9.20;100.00;102080.41;5112977;28;20516;-42
2022/08/29 04:40:40;;;;;;;15.02;8.88;;;;;;;9.27;100.00;102080.75;5112788;28;20027;-43
2022/08/29 04:43:06;;;;;;;19.88;10.10;;;;;;;9.30;100.00;102083.53;5112269;28;20107;-42
2022/08/29 04:45:34;;;;;;;14.43;9.93;;;;;;;9.33;100.00;102087.13;5112635;28;20027;-43
2022/08/29 04:48:02;;;;;;;16.52;9.68;;;;;;;9.26;100.00;102094.41;5113102;28;20081;-42
2022/08/29 04:50:28;;;;;;;13.63;9.77;;;;;;;9.35;100.00;102097.53;5112131;28;20019;-43
2022/08/29 04:52:53;;;;;;;18.42;10.50;;;;;;;9.42;100.00;102085.88;5112902;28;20030;-44
2022/08/29 04:55:21;;;;;;;14.65;9.45;;;;;;;9.41;100.00;102092.69;5112796;28;20077;-42
2022/08/29 04:57:48;;;;;;;11.30;8.90;;;;;;;9.36;100.00;102088.97;5111782;28;20019;-46
2022/08/29 05:00:16;;;;;;;11.43;8.77;;;;;;;9.23;100.00;102090.00;5114892;28;20494;-45
2022/08/29 05:02:42;;;;;;;10.13;7.40;;;;;;;9.06;100.00;102091.63;5116547;28;20077;-42
2022/08/29 05:05:10;;;;;;;10.95;7.10;;;;;;;9.01;100.00;102088.84;5115894;28;20490;-46
2022/08/29 05:07:35;;;;;;;12.35;7.80;;;;;;;9.08;100.00;102090.06;5116529;28;20031;-42
2022/08/29 05:10:05;;;;;;;11.75;8.52;;;;;;;9.07;100.00;102088.28;5115594;28;20015;-43
2022/08/29 05:12:32;;;;;;;12.88;8.20;;;;;;;9.01;100.00;102093.06;5116272;28;20028;-42
2022/08/29 05:14:58;;;;;;;13.45;8.38;;;;;;;9.05;100.00;102084.72;5116241;28;20024;-42
2022/08/29 05:17:24;;;;;;;11.10;8.68;;;;;;;9.09;100.00;102096.97;5115802;28;20030;-42
2022/08/29 05:19:50;;;;;;;14.73;8.77;;;;;;;9.15;100.00;102097.28;5116250;28;20039;-47
2022/08/29 05:22:16;;;;;;;15.05;8.75;;;;;;;9.15;100.00;102097.28;5116429;28;20019;-45
2022/08/29 05:24:42;;;;;;;12.30;8.48;;;;;;;9.30;100.00;102099.84;5115192;27;20028;-41
2022/08/29 05:27:09;;;;;;;12.73;8.40;;;;;;;9.28;100.00;102105.69;5116208;28;20038;-42
2022/08/29 05:29:40;;;;;;;12.75;8.60;;;;;;;9.29;100.00;102113.50;5115845;28;20497;-43
2022/08/29 05:32:07;;;;;;;12.93;9.10;;;;;;;9.41;100.00;102115.84;5115518;28;20061;-45
2022/08/29 05:34:33;;;;;;;11.13;8.82;;;;;;;9.48;100.00;102110.25;5116017;28;20054;-44
2022/08/29 05:36:59;;;;;;;16.10;8.65;;;;;;;9.43;100.00;102110.81;5115879;27;20497;-46
2022/08/29 05:39:24;;;;;;;13.45;8.27;;;;;;;9.43;100.00;102114.25;5114993;28;20051;-43
2022/08/29 05:41:54;;;;;;;14.80;8.98;;;;;;;9.51;100.00;102112.09;5115609;28;20386;-46
2022/08/29 05:44:19;;;;;;;18.17;10.10;;;;;;;9.68;100.00;102120.72;5116037;28;20023;-42
2022/08/29 05:46:45;;;;;;;13.35;9.90;;;;;;;9.84;100.00;102123.31;5114913;28;20028;-45
2022/08/29 05:49:10;;;;;;;17.10;10.13;;;;;;;9.95;100.00;102120.44;5115868;28;20051;-48
2022/08/29 05:51:36;;;;;;;14.27;11.00;;;;;;;10.14;100.00;102127.44;5115674;28;20049;-47
2022/08/29 05:54:02;;;;;;;15.68;10.27;;;;;;;10.24;100.00;102123.63;5114828;28;20020;-46
2022/08/29 05:56:29;;;;;;;16.10;11.20;;;;;;;10.37;100.00;102128.66;5115334;28;20037;-47
2022/08/29 05:58:55;;;;;;;16.13;10.43;;;;;;;10.49;100.00;102126.69;5115635;28;20034;-43
2022/08/29 06:01:27;;;;;;;19.00;10.60;;;;;;;10.58;100.00;102127.97;5114865;28;20304;-43
2022/08/29 06:03:53;;;;;;;19.80;11.35;;;;;;;10.76;100.00;102125.44;5115418;28;20027;-46
2022/08/29 06:06:20;;;;;;;16.95;10.95;;;;;;;10.86;100.00;102127.66;5114815;28;20020;-42
2022/08/29 06:08:45;;;;;;;15.07;12.50;;;;;;;11.00;100.00;102133.44;5115131;27;20461;-47
2022/08/29 06:11:15;;;;;;;19.10;12.00;;;;;;;11.08;100.00;102134.72;5114530;28;20019;-48
2022/08/29 06:13:41;;;;;;;19.17;11.55;;;;;;;11.19;100.00;102130.97;5114092;28;20475;-48
2022/08/29 06:16:09;;;;;;;18.88;10.15;;;;;;;11.28;100.00;102137.38;5115371;28;20026;-45
2022/08/29 06:18:35;;;;;;;17.30;10.65;;;;;;;11.33;100.00;102133.31;5115104;28;20059;-46
2022/08/29 06:21:05;;;;;;;18.75;10.25;;;;;;;11.42;100.00;102138.91;5114288;28;20432;-47
2022/08/29 06:23:31;;;;;;;17.60;11.57;;;;;;;11.47;100.00;102140.00;5114774;28;20440;-46
2022/08/29 06:25:57;;;;;;;19.55;10.82;;;;;;;11.58;100.00;102135.34;5114834;28;20507;-44
2022/08/29 06:28:22;;;;;;;16.00;10.02;;;;;;;11.63;100.00;102135.53;5114422;28;20030;-46
2022/08/29 06:30:47;;;;;;;16.65;10.57;;;;;;;11.66;100.00;102131.41;5114632;28;20023;-41
2022/08/29 06:33:13;;;;;;;17.23;11.00;;;;;;;11.77;100.00;102131.88;5115002;28;20038;-46
2022/08/29 06:35:38;;;;;;;16.67;9.85;;;;;;;11.90;100.00;102137.63;5113832;28;20023;-42
2022/08/29 06:38:04;;;;;;;15.85;10.68;;;;;;;12.06;100.00;102137.53;5114634;28;20099;-48
2022/08/29 06:40:29;;;;;;;13.57;10.98;;;;;;;12.18;100.00;102138.03;5114587;28;20028;-45
2022/08/29 06:42:55;;;;;;;15.00;10.57;;;;;;;12.34;100.00;102138.72;5113936;28;20049;-44
2022/08/29 06:45:20;;;;;;;18.35;11.07;;;;;;;12.47;100.00;102140.13;5114729;27;20475;-46
2022/08/29 06:47:46;;;;;;;14.93;10.93;;;;;;;12.50;100.00;102146.31;5114257;28;20035;-46
2022/08/29 06:50:13;;;;;;;17.83;10.43;;;;;;;12.73;100.00;102143.81;5113821;28;20028;-45
2022/08/29 06:52:38;;;;;;;17.98;10.02;;;;;;;12.80;100.00;102150.13;5114325;28;20031;-42
2022/08/29 06:55:04;;;;;;;15.13;9.43;;;;;;;12.89;100.00;102153.09;5114364;28;20015;-43
2022/08/29 06:57:30;;;;;;;17.05;9.40;;;;;;;12.99;100.00;102157.81;5113685;28;20049;-46
2022/08/29 06:59:55;;;;;;;18.30;8.75;;;;;;;13.12;97.91;102159.19;5114451;28;20441;-43
2022/08/29 07:02:20;;;;;;;15.82;8.73;;;;;;;13.38;99.38;102151.63;5114385;28;20059;-44
2022/08/29 07:04:46;;;;;;;15.23;8.80;;;;;;;13.57;97.20;102145.44;5113182;28;20030;-47
2022/08/29 07:07:11;;;;;;;16.77;10.10;;;;;;;13.67;95.55;102151.84;5114164;28;20026;-47
2022/08/29 07:09:36;;;;;;;14.13;8.93;;;;;;;13.95;92.96;102153.75;5113126;28;20024;-43
2022/08/29 07:12:02;;;;;;;16.05;9.38;;;;;;;14.22;94.18;102163.34;5114203;28;20029;-48
2022/08/29 07:14:27;;;;;;;18.05;9.63;;;;;;;14.52;92.54;102162.66;5113896;28;20024;-43
2022/08/29 07:16:55;;;;;;;20.35;9.52;;;;;;;14.65;90.32;102169.19;5113194;28;20063;-44
2022/08/29 07:19:20;;;;;;;16.60;7.68;;;;;;;14.86;87.63;102160.34;5114027;28;20039;-46
2022/08/29 07:21:47;;;;;;;16.55;8.00;;;;;;;15.24;86.51;102156.41;5113678;28;20051;-43
2022/08/29 07:24:13;;;;;;;15.27;7.70;;;;;;;15.56;84.26;102153.03;5112955;27;20118;-46
2022/08/29 07:26:41;;;;;;;12.52;7.70;;;;;;;15.82;83.12;102155.56;5113642;28;20106;-44
2022/08/29 07:29:14;;;;;;;13.55;7.38;;;;;;;16.12;80.60;102151.19;5113991;28;20067;-44
2022/08/29 07:31:40;;;;;;;16.25;6.63;;;;;;;16.28;76.07;102144.72;5112810;28;20028;-46
2022/08/29 07:34:06;;;;;;;16.50;6.90;;;;;;;16.66;76.50;102156.94;5113837;28;20066;-46
2022/08/29 07:36:32;;;;;;;14.52;6.20;;;;;;;16.67;74.93;102156.13;5113497;28;20020;-46
2022/08/29 07:38:58;;;;;;;15.43;6.63;;;;;;;16.87;72.61;102145.31;5112728;28;20504;-43
2022/08/29 07:41:24;;;;;;;16.15;5.63;;;;;;;17.05;69.90;102145.78;5113834;28;20062;-44
2022/08/29 07:43:50;;;;;;;14.38;6.10;;;;;;;17.19;70.19;102140.88;5113385;28;20437;-43
2022/08/29 07:46:17;;;;;;;12.25;6.63;;;;;;;17.30;70.33;102141.16;5112993;28;20024;-46
2022/08/29 07:48:43;;;;;;;10.52;6.60;;;;;;;17.31;70.33;102135.06;5113223;28;20518;-46
2022/08/29 07:51:11;;;;;;;12.77;5.53;;;;;;;17.33;68.19;102141.22;5113456;28;20111;-46
2022/08/29 07:53:37;;;;;;;17.05;5.70;;;;;;;17.53;65.17;102135.53;5112665;28;20094;-44
2022/08/29 07:56:17;;;;;;;12.65;4.90;;;;;;;17.64;63.99;102136.66;5113542;28;20412;-47
2022/08/29 07:58:43;;;;;;;10.52;4.60;;;;;;;17.66;62.91;102140.16;5112842;28;20031;-42
2022/08/29 08:01:09;;;;;;;10.93;4.80;;;;;;;17.91;63.77;102143.28;5113188;28;20016;-45
2022/08/29 08:03:34;;;;;;;9.73;4.25;;;;;;;18.03;61.43;102143.56;5113090;28;20069;-43
2022/08/29 08:06:01;;;;;;;10.18;4.25;;;;;;;17.97;59.82;102146.03;5112439;28;20031;-45
2022/08/29 08:08:27;;;;;;;8.95;4.28;;;;;;;17.86;59.79;102142.31;5113127;28;20375;-45
2022/08/29 08:10:52;;;;;;;9.55;3.38;;;;;;;17.89;60.03;102144.97;5113325;28;20475;-47
2022/08/29 08:13:18;;;;;;;11.35;4.28;;;;;;;17.95;60.63;102150.34;5112641;28;20475;-48
2022/08/29 08:15:44;;;;;;;8.73;3.95;;;;;;;18.06;59.41;102148.84;5112979;28;20028;-46
2022/08/29 08:18:09;;;;;;;10.43;4.30;;;;;;;18.07;59.43;102147.09;5113166;28;20031;-47
2022/08/29 08:20:35;;;;;;;12.85;4.20;;;;;;;18.20;59.96;102146.47;5112503;28;20098;-44
2022/08/29 08:23:00;;;;;;;11.55;4.22;;;;;;;18.37;58.43;102145.91;5113053;28;20437;-42
2022/08/29 08:25:26;;;;;;;28.85;6.22;;;;;;;18.43;58.09;102146.91;5112822;28;20031;-43
2022/08/29 08:27:52;;;;;;;20.73;5.13;;;;;;;18.51;58.14;102147.03;5112266;28;20110;-42
2022/08/29 08:30:17;;;;;;;13.85;4.70;;;;;;;18.52;56.20;102153.16;5113080;28;20074;-43
2022/08/29 08:32:43;;;;;;;10.27;4.38;;;;;;;18.46;57.14;102151.28;5112945;28;20059;-42
2022/08/29 08:35:10;;;;;;;27.17;5.95;;;;;;;18.27;56.27;102145.75;5114370;28;20023;-45
2022/08/29 08:37:35;;;;;;;31.88;5.93;;;;;;;18.17;56.72;102145.56;5117197;28;20032;-45
2022/08/29 08:40:00;;;;;;;20.17;5.70;;;;;;;18.16;58.38;102152.50;5116904;28;20549;-46
2022/08/29 08:42:41;;;;;;;14.02;4.60;;;;;;;18.21;58.34;102156.06;5116078;28;20043;-44
2022/08/29 08:45:18;;;;;;;9.82;4.20;;;;;;;18.21;57.78;102150.84;5116892;28;20028;-46
2022/08/29 08:47:59;;;;;;;9.43;4.03;;;;;;;18.17;55.89;102150.78;5116688;28;20404;-44
2022/08/29 08:50:52;;;;;;;9.32;4.05;;;;;;;18.25;57.89;102149.19;5117086;28;20055;-45
2022/08/29 08:53:40;;;;;;;9.90;4.15;;;;;;;18.31;55.30;102146.69;5116896;28;20053;-46
2022/08/29 08:56:18;;;;;;;9.13;4.20;;;;;;;18.45;57.11;102148.66;5111751;28;20035;-44
2022/08/29 08:58:53;;;;;;;14.52;5.07;;;;;;;18.61;55.33;102144.59;5116639;28;20031;-43
2022/08/29 09:01:31;;;;;;;11.85;5.90;;;;;;;18.88;58.75;102141.56;5116839;28;20066;-44
2022/08/29 09:04:42;;;;;;;16.02;6.15;;;;;;;19.06;59.49;102144.47;5115632;28;20051;-44
2022/08/29 09:07:19;;;;;;;13.80;5.53;;;;;;;19.23;56.88;102152.56;5053868;28;20091;-47
2022/08/29 09:10:29;;;;;;;11.18;4.93;;;;;;;19.31;56.53;102149.19;5112215;27;20040;-44
2022/08/29 09:13:22;;;;;;;10.40;4.47;;;;;;;19.37;55.82;102158.00;5083123;27;20036;-45
2022/08/29 09:15:51;;;;;;;9.50;4.40;;;;;;;19.35;51.00;102157.13;5116138;28;20020;-43
2022/08/29 09:18:27;;;;;;;9.15;4.22;;;;;;;19.31;52.42;102160.53;5115621;28;20028;-48
2022/08/29 09:20:53;;;;;;;7.68;3.75;;;;;;;19.47;51.29;102153.78;5116545;28;20042;-42
2022/08/29 09:23:38;;;;;;;12.50;4.90;;;;;;;19.46;53.40;102156.34;5115741;28;20507;-47
2022/08/29 09:26:04;;;;;;;11.05;4.85;;;;;;;19.30;51.62;102158.78;5116462;27;20051;-42
2022/08/29 09:28:29;;;;;;;12.15;4.90;;;;;;;19.59;51.56;102155.69;5116053;28;20070;-47
2022/08/29 09:31:15;;;;;;;10.82;4.20;;;;;;;19.64;52.64;102159.25;5115267;28;20024;-47
2022/08/29 09:33:44;;;;;;;13.43;4.10;;;;;;;19.78;52.15;102163.75;5116030;28;20028;-47
2022/08/29 09:36:31;;;;;;;8.95;4.13;;;;;;;19.86;49.85;102160.41;5115994;28;20534;-44
2022/08/29 09:39:20;;;;;;;12.40;4.32;;;;;;;20.16;51.06;102164.22;5115056;28;20040;-45
2022/08/29 09:42:10;;;;;;;13.23;4.18;;;;;;;20.10;51.28;102169.38;5115618;28;20514;-45
2022/08/29 09:44:36;;;;;;;12.95;4.43;;;;;;;20.07;50.06;102175.47;5114979;28;20032;-47
2022/08/29 09:47:10;;;;;;;7.95;3.65;;;;;;;20.24;49.39;102174.78;5114525;28;20068;-48
2022/08/29 09:49:38;;;;;;;12.23;4.03;;;;;;;20.29;48.63;102165.22;5115677;28;20038;-44
2022/08/29 09:52:22;;;;;;;7.75;3.72;;;;;;;20.31;50.10;102166.13;5114907;28;20094;-47
2022/08/29 09:54:47;;;;;;;9.65;3.78;;;;;;;20.12;50.34;102162.44;5115290;28;20089;-45
2022/08/29 09:57:23;;;;;;;12.05;3.97;;;;;;;20.17;49.56;102162.50;5115763;28;20023;-47
2022/08/29 10:00:15;;;;;;;12.20;3.92;;;;;;;20.19;51.85;102152.91;5114585;28;20020;-46
2022/08/29 10:02:52;;;;;;;10.65;3.60;;;;;;;19.92;51.88;102164.81;5115158;28;20035;-47
2022/08/29 10:05:33;;;;;;;;;;;;;;;20.47;53.57;102153.19;5115727;28;20032;-46
2022/08/29 10:08:00;;;;;;;7.93;3.70;;;;;;;21.34;48.67;102155.63;5115469;28;20026;-47
2022/08/29 10:10:29;;;;;;;8.90;3.93;;;;;;;22.14;46.24;102154.22;5115278;28;20027;-45
2022/08/29 10:13:18;;;;;;;8.20;3.95;;;;;;;22.58;46.96;102150.81;5114717;27;20069;-48
2022/08/29 10:15:50;;;;;;;8.15;3.92;;;;;;;22.01;44.34;102162.06;5115238;28;20038;-45
2022/08/29 10:18:27;;;;;;;11.00;4.10;;;;;;;22.42;44.92;102159.56;5115384;28;20019;-46
2022/08/29 10:21:06;;;;;;;8.02;3.90;;;;;;;22.84;45.56;102166.56;5114329;27;20053;-46
2022/08/29 10:23:50;;;;;;;9.05;4.07;;;;;;;23.04;44.16;102165.66;5115178;28;20023;-47
2022/08/29 10:26:46;;;;;;;10.25;3.95;;;;;;;22.86;44.77;102158.66;5115218;28;20031;-44
2022/08/29 10:29:27;;;;;;;8.53;3.77;;;;;;;22.93;43.08;102160.44;5114961;28;20458;-46
2022/08/29 10:32:03;;;;;;;11.20;4.00;;;;;;;22.96;42.37;102159.56;5115026;28;20027;-46
2022/08/29 10:34:54;;;;;;;10.82;3.92;;;;;;;24.08;40.07;102153.06;5114131;28;20073;-43
2022/08/29 10:37:40;;;;;;;7.53;3.60;;;;;;;25.09;40.20;102161.06;5114938;28;20028;-49
2022/08/29 10:40:31;;;;;;;9.82;3.92;;;;;;;25.13;39.16;102151.34;5114600;28;20124;-44
2022/08/29 10:43:35;;;;;;;7.78;3.75;;;;;;;26.26;38.31;102144.66;5114656;28;20040;-48
2022/08/29 10:46:28;;;;;;;8.52;4.15;;;;;;;28.24;35.97;102141.72;5114409;28;20486;-48
2022/08/29 10:49:18;;;;;;;9.02;3.50;;;;;;;29.12;31.94;102135.94;5113920;28;20031;-49
2022/08/29 10:52:06;;;;;;;8.25;3.25;;;;;;;29.81;33.78;102143.72;5114285;28;20032;-48
2022/08/29 10:54:49;;;;;;;10.75;3.58;;;;;;;29.77;30.93;102141.19;5114056;28;20380;-46
2022/08/29 10:57:30;;;;;;;8.23;3.38;;;;;;;29.53;29.14;102136.56;5114372;28;20031;-48
2022/08/29 11:00:05;;;;;;;8.82;3.58;;;;;;;28.50;29.77;102129.59;5114462;28;20039;-47
2022/08/29 11:02:40;;;;;;;10.25;3.38;;;;;;;28.32;32.09;102130.09;5113464;28;20036;-49
2022/08/29 11:05:15;;;;;;;9.13;3.15;;;;;;;29.75;29.67;102122.66;5114223;28;20482;-47
2022/08/29 11:07:53;;;;;;;8.07;3.35;;;;;;;30.45;30.29;102126.59;5114197;28;20028;-47
2022/08/29 11:10:25;;;;;;;8.35;3.72;;;;;;;30.89;28.81;102128.66;5113545;28;20028;-48
2022/08/29 11:13:22;;;;;;;13.43;3.85;;;;;;;30.82;27.84;102122.69;5114055;28;20070;-48
2022/08/29 11:16:14;;;;;;;6.18;3.33;;;;;;;31.43;29.09;102118.72;5113173;28;20020;-50
2022/08/29 11:18:46;;;;;;;8.30;3.42;;;;;;;31.30;25.80;102113.00;5113921;28;20016;-49
2022/08/29 11:21:27;;;;;;;8.43;3.22;;;;;;;30.93;27.80;102124.09;5114056;28;20020;-47
2022/08/29 11:23:52;;;;;;;8.60;3.10;;;;;;;29.99;27.04;102106.84;5112943;28;20095;-46
2022/08/29 11:26:50;;;;;;;10.13;3.60;;;;;;;29.91;29.96;102108.91;5114204;28;20424;-49